createdAt,value
2023-02-09T00:00:16.126Z,100851.03
2023-02-09T00:01:21.686Z,100856.03
2023-02-09T00:02:24.728Z,100859.22
2023-02-09T00:03:26.763Z,100852.34
2023-02-09T00:04:29.970Z,100853.09
2023-02-09T00:05:32.007Z,100849.66
2023-02-09T00:06:35.068Z,100857.22
2023-02-09T00:07:36.986Z,100846.31
2023-02-09T00:08:39.988Z,100844.59
2023-02-09T00:09:42.267Z,100849.72
2023-02-09T00:10:46.832Z,100842.16
2023-02-09T00:12:07.786Z,100845.47
2023-02-09T00:13:25.591Z,100846.28
2023-02-09T00:14:27.991Z,100840.31
2023-02-09T00:15:31.305Z,100837.78
2023-02-09T00:16:33.709Z,100836.13
2023-02-09T00:17:37.219Z,100836.13
2023-02-09T00:18:40.587Z,100834.47
2023-02-09T00:19:42.888Z,100831.09
2023-02-09T00:20:46.149Z,100820.25
2023-02-09T00:21:48.797Z,100824.50
2023-02-09T00:22:52.177Z,100823.69
2023-02-09T00:23:54.084Z,100823.75
2023-02-09T00:24:57.425Z,100817.06
2023-02-09T00:26:01.204Z,100822.13
2023-02-09T00:27:04.259Z,100817.94
2023-02-09T00:28:07.024Z,100809.59
2023-02-09T00:29:10.693Z,100814.69
2023-02-09T00:30:13.371Z,100806.25
2023-02-09T00:31:16.497Z,100799.41
2023-02-09T00:32:18.493Z,100807.75
2023-02-09T00:33:21.401Z,100803.44
2023-02-09T00:34:23.443Z,100805.09
2023-02-09T00:35:26.425Z,100812.66
2023-02-09T00:36:29.870Z,100794.22
2023-02-09T00:37:32.746Z,100797.72
2023-02-09T00:38:35.518Z,100798.69
2023-02-09T00:39:38.449Z,100800.53
2023-02-09T00:40:41.401Z,100795.69
2023-02-09T00:42:03.502Z,100798.41
2023-02-09T00:43:07.139Z,100794.41
2023-02-09T00:44:09.383Z,100794.44
2023-02-09T00:45:12.524Z,100784.34
2023-02-09T00:46:15.658Z,100791.81
2023-02-09T00:47:18.141Z,100788.31
2023-02-09T00:48:21.159Z,100786.50
2023-02-09T00:49:23.177Z,100785.56
2023-02-09T00:50:27.133Z,100781.13
2023-02-09T00:51:29.156Z,100783.50
2023-02-09T00:52:32.501Z,100785.91
2023-02-09T00:53:34.439Z,100774.84
2023-02-09T00:54:37.684Z,100773.13
2023-02-09T00:55:39.665Z,100772.31
2023-02-09T00:56:43.681Z,100781.53
2023-02-09T00:57:47.256Z,100773.97
2023-02-09T00:58:50.151Z,100778.22
2023-02-09T00:59:52.175Z,100787.44
2023-02-09T01:00:55.115Z,100789.19
2023-02-09T01:01:57.076Z,100790.91
2023-02-09T01:03:00.174Z,100796.84
2023-02-09T01:04:02.314Z,100797.75
2023-02-09T01:05:05.619Z,100791.13
2023-02-09T01:06:08.269Z,100796.22
2023-02-09T01:07:11.295Z,100793.69
2023-02-09T01:08:13.390Z,100793.63
2023-02-09T01:09:16.435Z,100799.31
2023-02-09T01:10:18.510Z,100787.34
2023-02-09T01:11:22.904Z,100798.09
2023-02-09T01:12:24.950Z,100795.38
2023-02-09T01:13:29.491Z,100791.84
2023-02-09T01:14:32.451Z,100797.44
2023-02-09T01:15:35.434Z,100797.22
2023-02-09T01:16:37.456Z,100802.06
2023-02-09T01:17:40.828Z,100801.03
2023-02-09T01:18:43.609Z,100804.31
2023-02-09T01:19:47.062Z,100797.50
2023-02-09T01:20:49.247Z,100795.81
2023-02-09T01:21:52.229Z,100794.97
2023-02-09T01:22:54.357Z,100794.09
2023-02-09T01:23:57.601Z,100798.28
2023-02-09T01:25:00.117Z,100794.91
2023-02-09T01:26:03.292Z,100792.34
2023-02-09T01:27:06.458Z,100796.44
2023-02-09T01:28:08.574Z,100792.16
2023-02-09T01:29:15.405Z,100792.91
2023-02-09T01:30:17.866Z,100788.66
2023-02-09T01:31:25.409Z,100790.31
2023-02-09T01:32:28.912Z,100787.78
2023-02-09T01:33:31.549Z,100780.97
2023-02-09T01:34:34.652Z,100776.78
2023-02-09T01:35:36.684Z,100775.09
2023-02-09T01:36:39.709Z,100776.84
2023-02-09T01:37:41.744Z,100774.34
2023-02-09T01:38:45.150Z,100773.47
2023-02-09T01:39:48.556Z,100770.97
2023-02-09T01:40:50.765Z,100760.00
2023-02-09T01:41:53.970Z,100766.69
2023-02-09T01:42:55.891Z,100771.00
2023-02-09T01:44:00.640Z,100775.22
2023-02-09T01:45:15.922Z,100764.31
2023-02-09T01:46:19.018Z,100766.03
2023-02-09T01:47:21.047Z,100766.13
2023-02-09T01:48:28.109Z,100766.22
2023-02-09T01:49:30.789Z,100770.47
2023-02-09T01:50:36.442Z,100762.84
2023-02-09T01:51:41.268Z,100761.06
2023-02-09T01:52:46.189Z,100762.59
2023-02-09T01:53:48.266Z,100758.34
2023-02-09T01:54:53.005Z,100762.47
2023-02-09T01:55:57.465Z,100759.84
2023-02-09T01:57:03.798Z,100758.06
2023-02-09T01:58:09.165Z,100756.34
2023-02-09T01:59:12.327Z,100752.91
2023-02-09T02:00:18.551Z,100748.66
2023-02-09T02:01:22.372Z,100751.06
2023-02-09T02:02:24.732Z,100750.94
2023-02-09T02:03:28.786Z,100761.00
2023-02-09T02:04:30.956Z,100754.31
2023-02-09T02:05:35.726Z,100751.06
2023-02-09T02:06:37.945Z,100758.69
2023-02-09T02:07:46.464Z,100757.81
2023-02-09T02:08:51.725Z,100757.00
2023-02-09T02:09:55.122Z,100752.72
2023-02-09T02:10:57.860Z,100762.00
2023-02-09T02:12:00.901Z,100761.97
2023-02-09T02:13:03.360Z,100756.97
2023-02-09T02:14:06.600Z,100751.78
2023-02-09T02:15:09.433Z,100755.06
2023-02-09T02:16:24.143Z,100749.91
2023-02-09T02:17:37.660Z,100754.75
2023-02-09T02:19:03.095Z,100753.72
2023-02-09T02:20:37.429Z,100751.09
2023-02-09T02:22:04.534Z,100758.56
2023-02-09T02:23:11.457Z,100751.81
2023-02-09T02:24:31.085Z,100745.97
2023-02-09T02:26:15.838Z,100741.75
2023-02-09T02:27:27.272Z,100750.16
2023-02-09T02:28:41.142Z,100753.44
2023-02-09T02:30:13.508Z,100744.84
2023-02-09T02:31:55.484Z,100745.56
2023-02-09T02:33:07.518Z,100750.53
2023-02-09T02:34:12.816Z,100753.06
2023-02-09T02:35:20.164Z,100746.31
2023-02-09T02:36:27.773Z,100743.84
2023-02-09T02:37:50.232Z,100746.38
2023-02-09T02:38:54.989Z,100738.81
2023-02-09T02:40:04.756Z,100736.34
2023-02-09T02:41:13.003Z,100740.59
2023-02-09T02:42:40.568Z,100738.09
2023-02-09T02:43:50.909Z,100737.16
2023-02-09T02:44:56.670Z,100739.63
2023-02-09T02:46:02.027Z,100739.56
2023-02-09T02:47:05.873Z,100736.19
2023-02-09T02:48:17.536Z,100735.38
2023-02-09T02:49:24.275Z,100731.88
2023-02-09T02:50:29.573Z,100722.63
2023-02-09T02:51:35.516Z,100720.03
2023-02-09T02:52:38.112Z,100719.97
2023-02-09T02:53:43.775Z,100723.34
2023-02-09T02:54:49.936Z,100717.53
2023-02-09T02:55:54.058Z,100716.78
2023-02-09T02:57:00.293Z,100722.66
2023-02-09T02:58:05.236Z,100718.56
2023-02-09T02:59:10.148Z,100710.22
2023-02-09T03:00:14.653Z,100710.22
2023-02-09T03:01:20.034Z,100707.69
2023-02-09T03:02:24.132Z,100711.78
2023-02-09T03:03:32.213Z,100705.91
2023-02-09T03:04:34.867Z,100710.03
2023-02-09T03:05:38.840Z,100721.75
2023-02-09T03:06:41.118Z,100712.59
2023-02-09T03:07:44.846Z,100710.06
2023-02-09T03:08:52.518Z,100711.78
2023-02-09T03:09:56.813Z,100711.78
2023-02-09T03:10:58.813Z,100709.28
2023-02-09T03:12:06.976Z,100709.22
2023-02-09T03:13:21.777Z,100707.50
2023-02-09T03:14:37.054Z,100700.69
2023-02-09T03:15:45.847Z,100701.47
2023-02-09T03:16:52.978Z,100697.25
2023-02-09T03:18:01.237Z,100698.97
2023-02-09T03:19:12.322Z,100690.56
2023-02-09T03:20:17.916Z,100688.94
2023-02-09T03:21:27.957Z,100683.13
2023-02-09T03:22:34.872Z,100688.28
2023-02-09T03:23:42.510Z,100692.50
2023-02-09T03:24:48.300Z,100688.34
2023-02-09T03:25:53.811Z,100690.91
2023-02-09T03:26:58.816Z,100686.69
2023-02-09T03:28:04.554Z,100688.34
2023-02-09T03:29:07.218Z,100683.25
2023-02-09T03:30:14.395Z,100683.19
2023-02-09T03:31:16.669Z,100679.75
2023-02-09T03:32:20.148Z,100678.03
2023-02-09T03:33:24.408Z,100678.88
2023-02-09T03:34:29.238Z,100678.03
2023-02-09T03:35:36.527Z,100675.59
2023-02-09T03:36:41.590Z,100678.19
2023-02-09T03:37:43.690Z,100676.63
2023-02-09T03:38:47.029Z,100679.25
2023-02-09T03:39:49.236Z,100670.16
2023-02-09T03:40:52.711Z,100671.13
2023-02-09T03:41:55.163Z,100669.56
2023-02-09T03:42:58.313Z,100675.59
2023-02-09T03:44:20.968Z,100674.78
2023-02-09T03:45:23.946Z,100668.91
2023-02-09T03:46:26.125Z,100677.31
2023-02-09T03:47:30.816Z,100666.50
2023-02-09T03:48:32.829Z,100677.47
2023-02-09T03:49:39.517Z,100675.78
2023-02-09T03:50:41.470Z,100668.22
2023-02-09T03:51:44.490Z,100674.97
2023-02-09T03:52:46.429Z,100665.69
2023-02-09T03:53:49.365Z,100672.31
2023-02-09T03:54:51.424Z,100670.50
2023-02-09T03:55:54.395Z,100668.72
2023-02-09T03:56:56.905Z,100666.09
2023-02-09T03:58:00.381Z,100671.00
2023-02-09T03:59:02.344Z,100665.94
2023-02-09T04:00:06.179Z,100673.34
2023-02-09T04:01:27.119Z,100665.56
2023-02-09T04:02:30.194Z,100669.63
2023-02-09T04:03:32.722Z,100671.22
2023-02-09T04:04:37.868Z,100665.25
2023-02-09T04:05:39.824Z,100668.66
2023-02-09T04:06:42.839Z,100665.19
2023-02-09T04:07:44.846Z,100667.66
2023-02-09T04:08:47.920Z,100661.69
2023-02-09T04:09:50.893Z,100666.72
2023-02-09T04:10:52.957Z,100664.22
2023-02-09T04:11:56.081Z,100663.44
2023-02-09T04:12:58.438Z,100646.59
2023-02-09T04:14:01.438Z,100657.56
2023-02-09T04:15:03.901Z,100655.94
2023-02-09T04:16:07.560Z,100659.31
2023-02-09T04:17:10.557Z,100658.50
2023-02-09T04:18:12.759Z,100658.50
2023-02-09T04:19:15.714Z,100655.13
2023-02-09T04:20:19.219Z,100658.50
2023-02-09T04:21:22.678Z,100661.81
2023-02-09T04:22:25.194Z,100664.41
2023-02-09T04:23:28.620Z,100662.72
2023-02-09T04:24:32.090Z,100656.75
2023-02-09T04:25:34.058Z,100659.03
2023-02-09T04:26:37.090Z,100666.31
2023-02-09T04:27:39.052Z,100659.31
2023-02-09T04:28:41.975Z,100654.16
2023-02-09T04:29:44.914Z,100646.50
2023-02-09T04:30:52.145Z,100639.63
2023-02-09T04:31:55.137Z,100649.66
2023-02-09T04:32:57.095Z,100652.16
2023-02-09T04:34:00.213Z,100649.56
2023-02-09T04:35:02.544Z,100647.00
2023-02-09T04:36:08.436Z,100652.97
2023-02-09T04:37:11.457Z,100652.88
2023-02-09T04:38:13.482Z,100644.44
2023-02-09T04:39:16.862Z,100641.84
2023-02-09T04:40:19.554Z,100647.66
2023-02-09T04:41:22.529Z,100645.16
2023-02-09T04:42:25.065Z,100647.66
2023-02-09T04:43:28.642Z,100646.88
2023-02-09T04:44:31.613Z,100636.03
2023-02-09T04:45:33.598Z,100641.91
2023-02-09T04:46:37.033Z,100638.59
2023-02-09T04:47:39.049Z,100640.38
2023-02-09T04:48:41.977Z,100647.00
2023-02-09T04:49:44.619Z,100643.56
2023-02-09T04:50:48.143Z,100633.44
2023-02-09T04:51:51.516Z,100637.59
2023-02-09T04:52:54.536Z,100642.63
2023-02-09T04:53:57.476Z,100645.28
2023-02-09T04:54:59.716Z,100633.56
2023-02-09T04:56:03.194Z,100652.16
2023-02-09T04:57:23.393Z,100655.59
2023-02-09T04:58:43.796Z,100651.50
2023-02-09T04:59:46.133Z,100641.47
2023-02-09T05:00:49.301Z,100643.94
2023-02-09T05:01:52.085Z,100641.16
2023-02-09T05:02:55.874Z,100640.97
2023-02-09T05:03:57.856Z,100650.97
2023-02-09T05:05:00.812Z,100646.63
2023-02-09T05:06:04.774Z,100639.00
2023-02-09T05:07:09.050Z,100640.63
2023-02-09T05:08:11.055Z,100639.63
2023-02-09T05:09:14.246Z,100637.13
2023-02-09T05:10:16.971Z,100637.84
2023-02-09T05:11:19.959Z,100634.41
2023-02-09T05:12:41.038Z,100636.72
2023-02-09T05:13:44.091Z,100631.66
2023-02-09T05:14:45.970Z,100631.59
2023-02-09T05:15:49.196Z,100641.66
2023-02-09T05:16:51.728Z,100634.13
2023-02-09T05:17:54.670Z,100634.13
2023-02-09T05:18:57.689Z,100633.25
2023-02-09T05:20:00.163Z,100629.09
2023-02-09T05:21:03.096Z,100623.91
2023-02-09T05:22:05.253Z,100627.28
2023-02-09T05:23:09.563Z,100631.41
2023-02-09T05:24:12.589Z,100629.69
2023-02-09T05:25:14.773Z,100639.75
2023-02-09T05:26:18.827Z,100625.53
2023-02-09T05:27:20.806Z,100626.38
2023-02-09T05:28:23.866Z,100617.97
2023-02-09T05:29:26.672Z,100629.81
2023-02-09T05:30:30.910Z,100627.34
2023-02-09T05:31:32.942Z,100634.97
2023-02-09T05:32:36.047Z,100629.94
2023-02-09T05:33:38.980Z,100626.63
2023-02-09T05:34:41.128Z,100627.34
2023-02-09T05:35:44.150Z,100628.16
2023-02-09T05:36:47.780Z,100630.66
2023-02-09T05:37:50.943Z,100632.38
2023-02-09T05:38:55.844Z,100623.13
2023-02-09T05:39:57.827Z,100639.91
2023-02-09T05:41:05.305Z,100639.16
2023-02-09T05:42:16.575Z,100639.16
2023-02-09T05:43:19.708Z,100645.84
2023-02-09T05:44:21.656Z,100641.66
2023-02-09T05:45:24.808Z,100649.13
2023-02-09T05:46:26.830Z,100647.34
2023-02-09T05:47:29.812Z,100640.59
2023-02-09T05:48:31.968Z,100632.97
2023-02-09T05:49:35.322Z,100634.72
2023-02-09T05:50:38.476Z,100634.78
2023-02-09T05:51:43.026Z,100631.41
2023-02-09T05:52:46.200Z,100627.28
2023-02-09T05:53:48.103Z,100628.22
2023-02-09T05:54:52.689Z,100631.66
2023-02-09T05:55:54.654Z,100627.47
2023-02-09T05:56:57.541Z,100623.34
2023-02-09T05:58:00.838Z,100627.63
2023-02-09T05:59:04.679Z,100630.13
2023-02-09T06:00:08.671Z,100624.16
2023-02-09T06:01:16.477Z,100624.91
2023-02-09T06:02:19.543Z,100627.34
2023-02-09T06:03:21.703Z,100626.44
2023-02-09T06:04:25.537Z,100623.88
2023-02-09T06:05:28.139Z,100621.22
2023-02-09T06:06:31.076Z,100617.00
2023-02-09T06:07:33.042Z,100631.25
2023-02-09T06:08:35.944Z,100631.25
2023-02-09T06:09:37.964Z,100630.41
2023-02-09T06:10:42.653Z,100628.75
2023-02-09T06:11:44.712Z,100627.91
2023-02-09T06:12:47.672Z,100632.94
2023-02-09T06:13:49.824Z,100636.28
2023-02-09T06:14:52.811Z,100632.78
2023-02-09T06:15:54.869Z,100639.31
2023-02-09T06:16:58.055Z,100632.47
2023-02-09T06:18:00.995Z,100630.66
2023-02-09T06:19:02.994Z,100636.56
2023-02-09T06:20:06.993Z,100633.22
2023-02-09T06:21:08.928Z,100624.97
2023-02-09T06:22:11.856Z,100639.31
2023-02-09T06:23:13.901Z,100635.22
2023-02-09T06:24:17.187Z,100637.78
2023-02-09T06:25:19.219Z,100636.22
2023-02-09T06:26:42.299Z,100637.97
2023-02-09T06:27:45.459Z,100628.03
2023-02-09T06:28:47.530Z,100633.97
2023-02-09T06:29:50.369Z,100644.16
2023-02-09T06:30:53.822Z,100633.41
2023-02-09T06:31:56.882Z,100634.47
2023-02-09T06:32:58.854Z,100638.88
2023-02-09T06:34:01.893Z,100628.34
2023-02-09T06:35:04.069Z,100635.59
2023-02-09T06:36:09.110Z,100632.06
2023-02-09T06:37:12.471Z,100632.06
2023-02-09T06:38:14.435Z,100633.00
2023-02-09T06:39:17.326Z,100631.38
2023-02-09T06:40:20.033Z,100632.41
2023-02-09T06:41:23.052Z,100625.84
2023-02-09T06:42:43.765Z,100629.19
2023-02-09T06:43:46.403Z,100631.81
2023-02-09T06:44:49.328Z,100625.06
2023-02-09T06:45:51.358Z,100633.34
2023-02-09T06:46:54.475Z,100631.50
2023-02-09T06:47:56.350Z,100622.81
2023-02-09T06:48:59.625Z,100625.03
2023-02-09T06:50:02.149Z,100626.34
2023-02-09T06:51:09.520Z,100620.94
2023-02-09T06:52:12.946Z,100625.34
2023-02-09T06:53:16.146Z,100621.19
2023-02-09T06:54:20.053Z,100619.53
2023-02-09T06:55:21.986Z,100623.06
2023-02-09T06:56:24.986Z,100625.03
2023-02-09T06:57:30.066Z,100632.03
2023-02-09T06:58:33.126Z,100624.66
2023-02-09T06:59:35.324Z,100633.34
2023-02-09T07:00:38.232Z,100635.25
2023-02-09T07:01:40.367Z,100632.03
2023-02-09T07:02:44.037Z,100630.41
2023-02-09T07:03:47.086Z,100633.84
2023-02-09T07:04:49.066Z,100630.66
2023-02-09T07:05:52.036Z,100630.13
2023-02-09T07:06:54.958Z,100634.69
2023-02-09T07:07:56.986Z,100637.47
2023-02-09T07:09:00.216Z,100632.66
2023-02-09T07:10:02.172Z,100627.06
2023-02-09T07:11:06.865Z,100634.13
2023-02-09T07:12:09.460Z,100633.66
2023-02-09T07:13:13.887Z,100628.88
2023-02-09T07:14:18.034Z,100626.63
2023-02-09T07:15:20.153Z,100625.91
2023-02-09T07:16:23.231Z,100625.09
2023-02-09T07:17:25.382Z,100627.78
2023-02-09T07:18:29.658Z,100631.34
2023-02-09T07:19:33.606Z,100628.13
2023-02-09T07:20:35.645Z,100636.84
2023-02-09T07:21:38.644Z,100626.94
2023-02-09T07:22:41.102Z,100631.47
2023-02-09T07:23:44.078Z,100631.63
2023-02-09T07:24:46.604Z,100625.00
2023-02-09T07:25:49.543Z,100626.84
2023-02-09T07:26:52.581Z,100616.78
2023-02-09T07:27:55.675Z,100624.53
2023-02-09T07:29:00.582Z,100627.16
2023-02-09T07:30:02.529Z,100620.47
2023-02-09T07:31:25.179Z,100627.41
2023-02-09T07:32:27.877Z,100631.81
2023-02-09T07:33:30.920Z,100622.59
2023-02-09T07:34:34.021Z,100626.09
2023-02-09T07:35:40.403Z,100619.38
2023-02-09T07:36:42.490Z,100627.03
2023-02-09T07:37:45.760Z,100620.22
2023-02-09T07:38:48.939Z,100627.88
2023-02-09T07:39:50.966Z,100615.97
2023-02-09T07:40:54.076Z,100626.22
2023-02-09T07:41:57.248Z,100624.47
2023-02-09T07:42:59.320Z,100621.84
2023-02-09T07:44:03.637Z,100622.63
2023-02-09T07:45:07.227Z,100620.84
2023-02-09T07:46:11.416Z,100620.81
2023-02-09T07:47:13.660Z,100621.59
2023-02-09T07:48:17.538Z,100620.72
2023-02-09T07:49:19.491Z,100620.69
2023-02-09T07:50:22.677Z,100613.88
2023-02-09T07:51:25.871Z,100614.69
2023-02-09T07:52:27.693Z,100612.13
2023-02-09T07:53:30.990Z,100615.47
2023-02-09T07:54:34.037Z,100620.59
2023-02-09T07:55:37.150Z,100614.63
2023-02-09T07:56:40.924Z,100614.69
2023-02-09T07:57:43.632Z,100610.44
2023-02-09T07:58:46.585Z,100606.19
2023-02-09T07:59:51.090Z,100608.75
2023-02-09T08:00:54.066Z,100610.44
2023-02-09T08:01:57.007Z,100609.59
2023-02-09T08:03:00.268Z,100620.66
2023-02-09T08:04:03.357Z,100615.56
2023-02-09T08:05:10.176Z,100614.72
2023-02-09T08:06:19.550Z,100613.88
2023-02-09T08:07:23.208Z,100607.09
2023-02-09T08:08:25.076Z,100610.47
2023-02-09T08:09:29.224Z,100608.78
2023-02-09T08:10:31.141Z,100611.31
2023-02-09T08:11:40.287Z,100605.38
2023-02-09T08:13:00.702Z,100607.03
2023-02-09T08:14:06.541Z,100596.84
2023-02-09T08:15:10.556Z,100602.84
2023-02-09T08:16:17.021Z,100608.78
2023-02-09T08:17:20.129Z,100603.69
2023-02-09T08:18:25.362Z,100598.59
2023-02-09T08:19:28.205Z,100599.47
2023-02-09T08:20:32.207Z,100602.03
2023-02-09T08:21:37.620Z,100590.16
2023-02-09T08:22:45.221Z,100591.88
2023-02-09T08:23:52.628Z,100597.00
2023-02-09T08:24:55.798Z,100591.94
2023-02-09T08:26:00.355Z,100589.41
2023-02-09T08:27:02.204Z,100590.28
2023-02-09T08:28:06.051Z,100586.09
2023-02-09T08:29:09.719Z,100586.97
2023-02-09T08:30:16.068Z,100581.03
2023-02-09T08:31:20.801Z,100577.66
2023-02-09T08:32:23.334Z,100576.84
2023-02-09T08:33:26.354Z,100574.31
2023-02-09T08:34:29.384Z,100576.03
2023-02-09T08:35:32.543Z,100573.53
2023-02-09T08:36:37.553Z,100579.50
2023-02-09T08:37:40.112Z,100576.97
2023-02-09T08:38:44.335Z,100581.25
2023-02-09T08:39:46.094Z,100581.28
2023-02-09T08:40:49.595Z,100582.16
2023-02-09T08:41:52.579Z,100577.09
2023-02-09T08:42:54.599Z,100575.41
2023-02-09T08:43:57.610Z,100576.28
2023-02-09T08:45:00.396Z,100583.13
2023-02-09T08:46:06.072Z,100574.63
2023-02-09T08:47:09.037Z,100582.31
2023-02-09T08:48:12.258Z,100584.88
2023-02-09T08:49:16.057Z,100578.94
2023-02-09T08:50:19.182Z,100574.72
2023-02-09T08:51:23.550Z,100574.69
2023-02-09T08:52:26.851Z,100581.53
2023-02-09T08:53:29.869Z,100570.47
2023-02-09T08:54:32.787Z,100571.31
2023-02-09T08:55:38.529Z,100579.84
2023-02-09T08:56:42.748Z,100583.25
2023-02-09T08:57:46.225Z,100583.25
2023-02-09T08:58:49.050Z,100582.44
2023-02-09T08:59:52.440Z,100586.69
2023-02-09T09:00:57.101Z,100585.84
2023-02-09T09:02:01.354Z,100579.03
2023-02-09T09:03:05.963Z,100580.72
2023-02-09T09:04:09.856Z,100580.72
2023-02-09T09:05:13.063Z,100581.59
2023-02-09T09:06:14.964Z,100579.03
2023-02-09T09:07:18.120Z,100585.00
2023-02-09T09:08:20.889Z,100587.53
2023-02-09T09:09:23.868Z,100583.28
2023-02-09T09:10:27.637Z,100582.44
2023-02-09T09:11:30.647Z,100584.94
2023-02-09T09:12:33.408Z,100585.78
2023-02-09T09:13:35.574Z,100589.19
2023-02-09T09:14:39.276Z,100591.75
2023-02-09T09:15:43.064Z,100590.94
2023-02-09T09:16:45.981Z,100589.19
2023-02-09T09:17:50.282Z,100597.72
2023-02-09T09:18:53.042Z,100596.00
2023-02-09T09:19:56.520Z,100591.72
2023-02-09T09:20:59.532Z,100595.97
2023-02-09T09:22:03.590Z,100592.53
2023-02-09T09:23:06.503Z,100585.69
2023-02-09T09:24:09.438Z,100585.72
2023-02-09T09:25:12.185Z,100592.50
2023-02-09T09:26:16.309Z,100589.06
2023-02-09T09:27:19.137Z,100594.19
2023-02-09T09:28:20.950Z,100589.03
2023-02-09T09:29:24.574Z,100589.00
2023-02-09T09:30:27.532Z,100585.53
2023-02-09T09:31:30.654Z,100580.38
2023-02-09T09:32:33.721Z,100582.94
2023-02-09T09:33:38.203Z,100582.06
2023-02-09T09:34:41.404Z,100576.09
2023-02-09T09:35:44.519Z,100578.59
2023-02-09T09:36:47.429Z,100582.84
2023-02-09T09:37:50.181Z,100587.09
2023-02-09T09:38:52.182Z,100585.34
2023-02-09T09:39:54.932Z,100583.59
2023-02-09T09:40:57.243Z,100580.97
2023-02-09T09:42:00.910Z,100581.81
2023-02-09T09:43:05.685Z,100583.50
2023-02-09T09:44:14.120Z,100578.31
2023-02-09T09:45:20.411Z,100574.81
2023-02-09T09:46:25.013Z,100570.47
2023-02-09T09:47:35.421Z,100570.38
2023-02-09T09:48:41.870Z,100573.69
2023-02-09T09:49:44.756Z,100576.16
2023-02-09T09:50:46.796Z,100569.22
2023-02-09T09:51:54.038Z,100572.56
2023-02-09T09:52:59.259Z,100574.19
2023-02-09T09:54:03.168Z,100575.91
2023-02-09T09:55:08.442Z,100571.63
2023-02-09T09:56:12.414Z,100574.19
2023-02-09T09:57:20.338Z,100572.44
2023-02-09T09:58:23.429Z,100568.13
2023-02-09T09:59:28.056Z,100568.94
2023-02-09T10:00:35.070Z,100568.03
2023-02-09T10:01:38.309Z,100570.56
2023-02-09T10:02:41.092Z,100569.69
2023-02-09T10:03:45.571Z,100567.97
2023-02-09T10:04:49.013Z,100572.22
2023-02-09T10:05:52.154Z,100572.22
2023-02-09T10:07:00.227Z,100576.47
2023-02-09T10:08:06.573Z,100567.91
2023-02-09T10:09:18.803Z,100565.28
2023-02-09T10:10:26.566Z,100561.84
2023-02-09T10:11:33.279Z,100554.13
2023-02-09T10:12:39.300Z,100557.53
2023-02-09T10:13:44.401Z,100556.59
2023-02-09T10:14:47.457Z,100565.13
2023-02-09T10:15:51.109Z,100569.34
2023-02-09T10:16:53.910Z,100566.72
2023-02-09T10:17:58.069Z,100554.66
2023-02-09T10:19:03.554Z,100558.91
2023-02-09T10:20:08.600Z,100555.44
2023-02-09T10:21:13.361Z,100557.97
2023-02-09T10:22:21.620Z,100557.03
2023-02-09T10:23:25.738Z,100556.16
2023-02-09T10:24:30.749Z,100549.25
2023-02-09T10:25:40.632Z,100550.09
2023-02-09T10:26:43.816Z,100552.69
2023-02-09T10:27:45.969Z,100556.06
2023-02-09T10:28:50.528Z,100555.19
2023-02-09T10:29:53.501Z,100558.59
2023-02-09T10:30:58.908Z,100556.03
2023-02-09T10:32:07.280Z,100554.34
2023-02-09T10:33:15.774Z,100555.16
2023-02-09T10:34:22.657Z,100545.69
2023-02-09T10:35:27.901Z,100544.75
2023-02-09T10:36:33.442Z,100549.84
2023-02-09T10:37:37.214Z,100548.09
2023-02-09T10:38:41.097Z,100548.09
2023-02-09T10:39:43.945Z,100550.59
2023-02-09T10:40:48.188Z,100544.56
2023-02-09T10:41:52.214Z,100543.66
2023-02-09T10:42:56.794Z,100547.00
2023-02-09T10:43:58.839Z,100535.84
2023-02-09T10:45:07.598Z,100540.94
2023-02-09T10:46:18.388Z,100532.34
2023-02-09T10:47:29.837Z,100532.28
2023-02-09T10:48:41.848Z,100533.13
2023-02-09T10:49:53.317Z,100535.66
2023-02-09T10:50:58.805Z,100526.22
2023-02-09T10:52:11.513Z,100530.44
2023-02-09T10:53:21.044Z,100518.41
2023-02-09T10:54:24.874Z,100523.47
2023-02-09T10:55:35.276Z,100525.13
2023-02-09T10:56:46.177Z,100518.19
2023-02-09T10:57:48.531Z,100518.97
2023-02-09T10:58:53.975Z,100518.09
2023-02-09T10:59:58.903Z,100521.44
2023-02-09T11:01:08.308Z,100518.81
2023-02-09T11:02:35.805Z,100517.06
2023-02-09T11:03:39.572Z,100513.63
2023-02-09T11:04:42.411Z,100515.31
2023-02-09T11:05:48.539Z,100509.25
2023-02-09T11:06:53.962Z,100504.91
2023-02-09T11:08:00.040Z,100503.13
2023-02-09T11:09:05.030Z,100496.25
2023-02-09T11:10:12.804Z,100491.91
2023-02-09T11:11:28.346Z,100487.56
2023-02-09T11:12:31.169Z,100467.81
2023-02-09T11:13:35.246Z,100470.31
2023-02-09T11:14:38.240Z,100483.13
2023-02-09T11:15:44.803Z,100472.78
2023-02-09T11:16:56.868Z,100471.94
2023-02-09T11:18:03.055Z,100467.63
2023-02-09T11:19:12.891Z,100464.22
2023-02-09T11:20:23.268Z,100459.91
2023-02-09T11:21:34.009Z,100457.34
2023-02-09T11:23:21.716Z,100459.91
2023-02-09T11:24:28.825Z,100462.44
2023-02-09T11:25:35.561Z,100449.53
2023-02-09T11:26:43.293Z,100444.38
2023-02-09T11:27:58.090Z,100439.19
2023-02-09T11:29:07.742Z,100444.25
2023-02-09T11:30:18.289Z,100433.94
2023-02-09T11:31:37.985Z,100439.03
2023-02-09T11:32:45.334Z,100431.28
2023-02-09T11:33:52.276Z,100432.13
2023-02-09T11:35:07.188Z,100428.59
2023-02-09T11:36:20.377Z,100436.28
2023-02-09T11:37:30.694Z,100431.09
2023-02-09T11:38:38.015Z,100433.56
2023-02-09T11:39:44.791Z,100435.22
2023-02-09T11:40:50.707Z,100438.53
2023-02-09T11:42:14.137Z,100431.69
2023-02-09T11:43:20.331Z,100434.22
2023-02-09T11:44:28.079Z,100431.50
2023-02-09T11:45:34.628Z,100430.59
2023-02-09T11:46:36.966Z,100440.88
2023-02-09T11:47:53.067Z,100433.94
2023-02-09T11:48:58.531Z,100433.84
2023-02-09T11:50:03.000Z,100426.94
2023-02-09T11:51:09.363Z,100423.38
2023-02-09T11:52:17.133Z,100424.16
2023-02-09T11:53:29.502Z,100426.66
2023-02-09T11:54:34.095Z,100419.69
2023-02-09T11:55:39.156Z,100420.38
2023-02-09T11:56:44.412Z,100424.56
2023-02-09T11:57:50.014Z,100426.13
2023-02-09T11:58:55.031Z,100427.72
2023-02-09T11:59:59.142Z,100424.19
2023-02-09T12:01:15.995Z,100419.88
2023-02-09T12:02:27.802Z,100418.09
2023-02-09T12:03:30.626Z,100420.66
2023-02-09T12:04:40.570Z,100418.03
2023-02-09T12:05:44.359Z,100419.66
2023-02-09T12:06:49.661Z,100420.53
2023-02-09T12:08:08.530Z,100413.63
2023-02-09T12:09:30.482Z,100418.81
2023-02-09T12:10:36.763Z,100404.16
2023-02-09T12:11:47.868Z,100402.38
2023-02-09T12:12:54.665Z,100410.94
2023-02-09T12:14:09.918Z,100411.78
2023-02-09T12:15:16.135Z,100395.38
2023-02-09T12:16:21.831Z,100392.75
2023-02-09T12:17:28.907Z,100391.88
2023-02-09T12:18:32.986Z,100393.53
2023-02-09T12:19:36.674Z,100384.75
2023-02-09T12:20:51.374Z,100390.63
2023-02-09T12:21:54.181Z,100388.78
2023-02-09T12:23:07.755Z,100387.00